createdAt,value
2023-01-11T00:01:35.596Z,33.83
2023-01-11T00:04:03.915Z,31.77
2023-01-11T00:06:32.234Z,31.92
2023-01-11T00:09:00.540Z,31.35
2023-01-11T00:11:28.850Z,35.03
2023-01-11T00:13:58.625Z,36.72
2023-01-11T00:16:27.041Z,31.83
2023-01-11T00:18:55.382Z,31.15
2023-01-11T00:21:23.637Z,29.40
2023-01-11T00:23:52.083Z,29.52
2023-01-11T00:26:20.380Z,27.80
2023-01-11T00:28:50.208Z,28.45
2023-01-11T00:31:20.027Z,30.95
2023-01-11T00:33:48.395Z,28.08
2023-01-11T00:36:16.605Z,28.08
2023-01-11T00:38:46.819Z,28.52
2023-01-11T00:41:34.234Z,30.98
2023-01-11T00:44:19.967Z,30.25
2023-01-11T00:47:06.990Z,26.52
2023-01-11T00:49:35.769Z,27.70
2023-01-11T00:52:07.182Z,28.63
2023-01-11T00:54:35.542Z,29.33
2023-01-11T00:57:04.522Z,28.02
2023-01-11T00:59:33.021Z,28.33
2023-01-11T01:02:02.963Z,30.50
2023-01-11T01:04:31.295Z,27.25
2023-01-11T01:06:59.811Z,27.40
2023-01-11T01:09:28.505Z,31.02
2023-01-11T01:11:56.793Z,28.35
2023-01-11T01:14:26.649Z,25.58
2023-01-11T01:16:55.533Z,27.73
2023-01-11T01:19:27.771Z,28.58
2023-01-11T01:21:56.860Z,27.58
2023-01-11T01:24:28.297Z,30.05
2023-01-11T01:26:56.596Z,27.20
2023-01-11T01:29:25.306Z,25.50
2023-01-11T01:31:53.531Z,27.25
2023-01-11T01:34:21.802Z,25.70
2023-01-11T01:36:51.496Z,26.65
2023-01-11T01:39:19.763Z,24.88
2023-01-11T01:41:47.939Z,25.80
2023-01-11T01:44:55.796Z,27.02
2023-01-11T01:47:28.419Z,28.00
2023-01-11T01:49:58.736Z,26.58
2023-01-11T01:52:29.568Z,29.95
2023-01-11T01:55:00.315Z,25.60
2023-01-11T01:57:31.795Z,28.00
2023-01-11T02:00:04.514Z,27.10
2023-01-11T02:02:34.892Z,27.63
2023-01-11T02:05:03.404Z,27.38
2023-01-11T02:07:37.470Z,27.13
2023-01-11T02:10:09.101Z,27.23
2023-01-11T02:12:40.506Z,30.02
2023-01-11T02:15:10.647Z,26.75
2023-01-11T02:17:39.010Z,29.58
2023-01-11T02:20:27.942Z,27.27
2023-01-11T02:23:28.811Z,28.08
2023-01-11T02:26:41.691Z,24.73
2023-01-11T02:29:16.497Z,29.08
2023-01-11T02:31:51.458Z,28.17
2023-01-11T02:34:32.675Z,30.25
2023-01-11T02:37:09.839Z,25.27
2023-01-11T02:39:46.603Z,30.30
2023-01-11T02:42:43.855Z,27.35
2023-01-11T02:45:21.164Z,29.00
2023-01-11T02:47:56.802Z,28.95
2023-01-11T02:50:31.670Z,27.88
2023-01-11T02:53:05.701Z,27.13
2023-01-11T02:55:39.647Z,30.48
2023-01-11T02:58:11.307Z,30.50
2023-01-11T03:00:42.258Z,28.00
2023-01-11T03:03:15.641Z,32.03
2023-01-11T03:05:49.053Z,33.58
2023-01-11T03:09:17.887Z,35.15
2023-01-11T03:12:18.509Z,34.95
2023-01-11T03:14:55.823Z,35.30
2023-01-11T03:17:39.884Z,37.70
2023-01-11T03:20:15.784Z,38.60
2023-01-11T03:22:54.182Z,37.25
2023-01-11T03:25:31.978Z,39.28
2023-01-11T03:28:14.999Z,37.15
2023-01-11T03:30:50.761Z,40.10
2023-01-11T03:33:29.213Z,38.95
2023-01-11T03:36:01.915Z,39.47
2023-01-11T03:38:34.529Z,38.15
2023-01-11T03:41:06.318Z,38.35
2023-01-11T03:43:37.036Z,40.15
2023-01-11T03:46:09.766Z,39.97
2023-01-11T03:48:45.109Z,38.05
2023-01-11T03:51:16.196Z,43.63
2023-01-11T03:53:48.217Z,40.35
2023-01-11T03:56:22.097Z,39.85
2023-01-11T03:58:50.469Z,43.38
2023-01-11T04:01:18.735Z,43.50
2023-01-11T04:03:48.389Z,43.90
2023-01-11T04:06:16.854Z,41.42
2023-01-11T04:08:45.055Z,43.78
2023-01-11T04:11:14.271Z,44.17
2023-01-11T04:13:42.433Z,40.25
2023-01-11T04:16:10.678Z,45.22
2023-01-11T04:18:38.975Z,41.00
2023-01-11T04:21:08.877Z,41.70
2023-01-11T04:23:37.187Z,42.67
2023-01-11T04:26:08.085Z,42.33
2023-01-11T04:28:36.627Z,43.17
2023-01-11T04:31:04.957Z,39.55
2023-01-11T04:33:33.296Z,44.13
2023-01-11T04:36:06.118Z,39.78
2023-01-11T04:38:36.170Z,40.22
2023-01-11T04:41:23.821Z,40.13
2023-01-11T04:43:54.743Z,40.00
2023-01-11T04:46:23.062Z,39.80
2023-01-11T04:48:51.739Z,37.92
2023-01-11T04:51:20.293Z,38.90
2023-01-11T04:53:50.564Z,39.15
2023-01-11T04:56:19.518Z,41.88
2023-01-11T04:58:48.010Z,38.53
2023-01-11T05:01:18.456Z,34.33
2023-01-11T05:03:47.567Z,37.95
2023-01-11T05:06:16.509Z,39.85
2023-01-11T05:08:47.410Z,36.30
2023-01-11T05:11:17.983Z,36.20
2023-01-11T05:13:46.283Z,34.95
2023-01-11T05:16:17.816Z,38.50
2023-01-11T05:18:47.815Z,33.13
2023-01-11T05:21:18.983Z,35.28
2023-01-11T05:23:47.607Z,34.13
2023-01-11T05:26:21.912Z,35.03
2023-01-11T05:28:51.327Z,35.17
2023-01-11T05:31:20.349Z,34.25
2023-01-11T05:33:48.862Z,34.88
2023-01-11T05:36:19.085Z,34.00
2023-01-11T05:38:47.784Z,30.52
2023-01-11T05:41:18.468Z,31.52
2023-01-11T05:44:02.260Z,30.40
2023-01-11T05:46:30.774Z,29.70
2023-01-11T05:48:59.978Z,28.10
2023-01-11T05:51:30.570Z,28.10
2023-01-11T05:53:58.845Z,25.70
2023-01-11T05:56:29.113Z,26.75
2023-01-11T05:58:57.592Z,25.05
2023-01-11T06:01:27.184Z,24.92
2023-01-11T06:03:55.437Z,25.33
2023-01-11T06:06:24.196Z,23.40
2023-01-11T06:08:52.516Z,24.33
2023-01-11T06:11:20.848Z,24.77
2023-01-11T06:13:50.428Z,24.67
2023-01-11T06:16:20.565Z,21.48
2023-01-11T06:18:50.200Z,22.83
2023-01-11T06:21:19.353Z,20.73
2023-01-11T06:23:50.841Z,21.65
2023-01-11T06:26:21.936Z,24.85
2023-01-11T06:28:52.711Z,23.02
2023-01-11T06:31:21.219Z,21.80
2023-01-11T06:33:49.563Z,22.88
2023-01-11T06:36:17.884Z,24.92
2023-01-11T06:38:46.511Z,25.80
2023-01-11T06:41:15.918Z,23.75
2023-01-11T06:43:44.272Z,25.15
2023-01-11T06:46:15.779Z,26.77
2023-01-11T06:48:44.537Z,27.33
2023-01-11T06:51:13.513Z,27.48
2023-01-11T06:53:42.660Z,26.85
2023-01-11T06:56:14.290Z,26.75
2023-01-11T06:58:43.978Z,26.80
2023-01-11T07:01:15.342Z,27.80
2023-01-11T07:03:45.416Z,26.15
2023-01-11T07:06:13.906Z,27.33
2023-01-11T07:08:42.492Z,26.70
2023-01-11T07:11:11.470Z,23.70
2023-01-11T07:13:39.820Z,27.95
2023-01-11T07:16:08.691Z,27.90
2023-01-11T07:18:38.403Z,26.08
2023-01-11T07:21:07.041Z,27.23
2023-01-11T07:23:35.469Z,27.73
2023-01-11T07:26:03.818Z,27.08
2023-01-11T07:28:32.098Z,25.52
2023-01-11T07:31:00.591Z,27.02
2023-01-11T07:33:29.287Z,24.60
2023-01-11T07:36:00.831Z,25.35
2023-01-11T07:38:29.759Z,24.65
2023-01-11T07:40:58.093Z,23.50
2023-01-11T07:43:25.462Z,27.20
2023-01-11T07:45:54.369Z,25.95
2023-01-11T07:48:27.106Z,27.23
2023-01-11T07:50:56.268Z,27.48
2023-01-11T07:53:26.664Z,25.45
2023-01-11T07:55:56.838Z,22.90
2023-01-11T07:58:25.575Z,21.90
2023-01-11T08:00:53.916Z,22.95
2023-01-11T08:03:23.732Z,24.13
2023-01-11T08:05:52.809Z,21.48
2023-01-11T08:08:21.263Z,22.67
2023-01-11T08:11:11.009Z,21.65
2023-01-11T08:13:56.487Z,21.15
2023-01-11T08:16:24.838Z,21.63
2023-01-11T08:18:53.386Z,21.08
2023-01-11T08:21:22.515Z,22.95
2023-01-11T08:23:50.823Z,23.55
2023-01-11T08:26:20.428Z,24.80
2023-01-11T08:28:48.760Z,25.48
2023-01-11T08:31:17.334Z,23.70
2023-01-11T08:33:45.665Z,23.80
2023-01-11T08:36:14.910Z,25.10
2023-01-11T08:38:43.285Z,25.67
2023-01-11T08:41:11.841Z,22.60
2023-01-11T08:43:43.010Z,24.35
2023-01-11T08:46:11.826Z,25.08
2023-01-11T08:48:40.097Z,24.95
2023-01-11T08:51:08.345Z,26.52
2023-01-11T08:53:37.797Z,24.08
2023-01-11T08:56:06.583Z,24.63
2023-01-11T08:58:35.136Z,24.23
2023-01-11T09:01:08.203Z,24.65
2023-01-11T09:03:37.003Z,24.17
2023-01-11T09:06:05.885Z,24.92
2023-01-11T09:08:34.176Z,23.98
2023-01-11T09:11:02.475Z,24.52
2023-01-11T09:13:31.661Z,26.42
2023-01-11T09:16:00.197Z,24.85
2023-01-11T09:18:29.966Z,26.17
2023-01-11T09:20:58.288Z,24.98
2023-01-11T09:23:26.697Z,26.10
2023-01-11T09:25:57.189Z,23.67
2023-01-11T09:28:25.612Z,24.95
2023-01-11T09:30:54.991Z,24.90
2023-01-11T09:33:23.495Z,24.70
2023-01-11T09:35:56.046Z,25.30
2023-01-11T09:38:26.787Z,24.25
2023-01-11T09:41:04.461Z,24.27
2023-01-11T09:43:38.692Z,24.58
2023-01-11T09:46:09.261Z,24.70
2023-01-11T09:48:43.558Z,25.02
2023-01-11T09:51:16.607Z,23.63
2023-01-11T09:53:50.334Z,24.33
2023-01-11T09:56:25.391Z,25.42
2023-01-11T09:59:06.586Z,25.50
2023-01-11T10:01:43.204Z,24.25
2023-01-11T10:04:33.404Z,24.83
2023-01-11T10:07:37.985Z,23.55
2023-01-11T10:18:42.768Z,23.55
2023-01-11T10:19:36.550Z,22.35
2023-01-11T10:22:13.076Z,24.58
2023-01-11T10:24:46.481Z,24.17
2023-01-11T10:27:22.693Z,22.17
2023-01-11T10:30:12.937Z,23.75
2023-01-11T10:33:05.997Z,24.73
2023-01-11T10:36:02.912Z,23.98
2023-01-11T10:38:54.656Z,24.02
2023-01-11T10:41:34.120Z,26.20
2023-01-11T10:44:11.928Z,25.85
2023-01-11T10:46:44.833Z,25.52
2023-01-11T10:49:33.651Z,24.17
2023-01-11T10:52:25.856Z,26.48
2023-01-11T10:54:57.346Z,24.02
2023-01-11T10:57:59.688Z,22.83
2023-01-11T11:00:36.630Z,25.15
2023-01-11T11:03:21.847Z,24.35
2023-01-11T11:05:57.710Z,22.95
2023-01-11T11:08:32.052Z,22.17
2023-01-11T11:11:03.034Z,26.63
2023-01-11T11:13:43.878Z,24.85
2023-01-11T11:16:25.480Z,24.30
2023-01-11T11:18:58.389Z,24.98
2023-01-11T11:21:30.369Z,24.65
2023-01-11T11:24:03.175Z,24.48
2023-01-11T11:26:39.539Z,23.70
2023-01-11T11:29:11.584Z,23.55
2023-01-11T11:31:47.164Z,22.98
2023-01-11T11:34:18.844Z,22.85
2023-01-11T11:36:48.962Z,24.08
2023-01-11T11:39:22.043Z,22.38
2023-01-11T11:41:52.916Z,23.67
2023-01-11T11:44:28.385Z,24.95
2023-01-11T11:47:01.726Z,24.45
2023-01-11T11:49:31.601Z,23.58
2023-01-11T11:52:01.270Z,23.40
2023-01-11T11:54:32.915Z,22.02
2023-01-11T11:57:15.929Z,23.00
2023-01-11T11:59:49.625Z,23.13
2023-01-11T12:02:25.833Z,23.35
2023-01-11T12:04:56.041Z,24.75
2023-01-11T12:07:27.002Z,24.33
2023-01-11T12:10:00.140Z,21.23
2023-01-11T12:12:29.746Z,21.95
2023-01-11T12:15:22.112Z,20.83
2023-01-11T12:17:50.769Z,20.92
2023-01-11T12:20:33.233Z,22.90
2023-01-11T12:23:26.731Z,21.15
2023-01-11T12:26:09.751Z,20.45
2023-01-11T12:29:02.773Z,19.13
2023-01-11T12:31:41.557Z,20.45
2023-01-11T12:34:26.034Z,19.10
2023-01-11T12:37:01.267Z,18.90
2023-01-11T12:39:38.075Z,19.52
2023-01-11T12:42:22.168Z,21.10
2023-01-11T12:45:04.024Z,21.17
2023-01-11T12:47:54.773Z,20.27
2023-01-11T12:50:25.633Z,19.75
2023-01-11T12:53:10.753Z,20.90
2023-01-11T12:55:52.736Z,19.50
2023-01-11T12:58:26.591Z,20.38
2023-01-11T13:01:23.761Z,21.15
2023-01-11T13:04:17.643Z,20.13
2023-01-11T13:06:56.763Z,20.38
2023-01-11T13:09:34.728Z,18.98
2023-01-11T13:12:11.571Z,20.38
2023-01-11T13:14:55.918Z,18.38
2023-01-11T13:17:30.359Z,18.15
2023-01-11T13:20:11.256Z,18.83
2023-01-11T13:22:44.691Z,18.35
2023-01-11T13:25:18.211Z,19.00
2023-01-11T13:27:47.633Z,18.42
2023-01-11T13:30:18.004Z,19.58
2023-01-11T13:32:52.482Z,20.00
2023-01-11T13:35:28.862Z,18.13
2023-01-11T13:38:02.339Z,20.35
2023-01-11T13:40:36.676Z,19.33
2023-01-11T13:43:09.110Z,19.83
2023-01-11T13:45:41.372Z,20.90
2023-01-11T13:48:19.715Z,18.52
2023-01-11T13:50:55.553Z,19.20
2023-01-11T13:53:29.500Z,22.15
2023-01-11T13:56:03.171Z,21.17
2023-01-11T13:58:37.403Z,20.23
2023-01-11T14:01:14.057Z,22.67
2023-01-11T14:03:48.561Z,21.75
2023-01-11T14:06:36.099Z,21.38
2023-01-11T14:09:22.834Z,19.70
2023-01-11T14:12:06.463Z,23.27
2023-01-11T14:14:56.113Z,21.67
2023-01-11T14:17:44.189Z,22.88
2023-01-11T14:20:24.148Z,23.13
2023-01-11T14:23:06.532Z,22.05
2023-01-11T14:25:46.074Z,26.25
2023-01-11T14:28:30.492Z,24.17
2023-01-11T14:31:33.217Z,22.95
2023-01-11T14:34:47.477Z,22.52
2023-01-11T14:37:57.390Z,22.92
2023-01-11T14:40:54.489Z,21.13
2023-01-11T14:43:55.555Z,23.67
2023-01-11T14:47:05.373Z,22.95
2023-01-11T14:49:49.527Z,23.50
2023-01-11T14:52:34.587Z,22.88
2023-01-11T14:55:15.533Z,23.02
2023-01-11T14:58:01.317Z,22.40
2023-01-11T15:01:06.539Z,23.58
2023-01-11T15:03:50.492Z,22.80
2023-01-11T15:06:56.407Z,25.25
2023-01-11T15:09:45.344Z,22.90
2023-01-11T15:12:15.228Z,23.08
2023-01-11T15:14:53.735Z,24.67
2023-01-11T15:17:50.298Z,21.92
2023-01-11T15:20:34.975Z,24.20
2023-01-11T15:23:06.063Z,24.88
2023-01-11T15:25:36.149Z,23.42
2023-01-11T15:28:27.652Z,24.73
2023-01-11T15:30:57.424Z,24.30
2023-01-11T15:33:30.011Z,23.58
2023-01-11T15:36:06.862Z,23.65
2023-01-11T15:38:39.066Z,22.42
2023-01-11T15:41:30.042Z,22.27
2023-01-11T15:44:19.345Z,20.50
2023-01-11T15:47:13.747Z,24.27
2023-01-11T15:50:08.284Z,23.10
2023-01-11T15:53:09.479Z,24.98
2023-01-11T15:56:18.286Z,22.23
2023-01-11T15:59:17.244Z,23.73
2023-01-11T16:02:15.137Z,24.25
2023-01-11T16:04:47.235Z,23.02
2023-01-11T16:07:22.483Z,25.33
2023-01-11T16:10:16.350Z,26.67
2023-01-11T16:13:08.472Z,24.23
2023-01-11T16:15:49.492Z,24.33
2023-01-11T16:18:23.456Z,25.25
2023-01-11T16:21:01.497Z,24.35
2023-01-11T16:23:33.028Z,24.67
2023-01-11T16:26:02.543Z,23.15
2023-01-11T16:28:30.957Z,25.15
2023-01-11T16:31:02.167Z,25.15
2023-01-11T16:33:33.780Z,26.58
2023-01-11T16:36:13.358Z,25.23
2023-01-11T16:38:56.595Z,25.15
2023-01-11T16:41:30.322Z,25.35
2023-01-11T16:44:03.476Z,23.75
2023-01-11T16:47:12.302Z,23.70
2023-01-11T16:49:48.792Z,24.30
2023-01-11T16:52:51.695Z,24.02
2023-01-11T16:55:29.658Z,22.65
2023-01-11T16:58:01.581Z,23.67
2023-01-11T17:00:39.897Z,23.48
2023-01-11T17:03:23.884Z,26.05
2023-01-11T17:06:04.040Z,24.65
2023-01-11T17:08:35.612Z,24.50
2023-01-11T17:11:10.032Z,24.20
2023-01-11T17:14:18.254Z,24.50
2023-01-11T17:16:49.183Z,24.95
2023-01-11T17:19:20.337Z,25.23
2023-01-11T17:21:52.902Z,25.25
2023-01-11T17:24:26.008Z,25.45
2023-01-11T17:26:57.982Z,25.98
2023-01-11T17:29:30.487Z,25.90
2023-01-11T17:32:00.946Z,26.48
2023-01-11T17:34:35.233Z,24.38
2023-01-11T17:37:10.529Z,24.70
2023-01-11T17:39:40.869Z,25.23
2023-01-11T17:42:30.167Z,24.60
2023-01-11T17:45:14.328Z,26.70
2023-01-11T17:47:46.638Z,26.65
2023-01-11T17:51:10.624Z,25.20
2023-01-11T17:53:59.048Z,25.75
2023-01-11T17:56:41.893Z,25.80
2023-01-11T17:59:21.565Z,27.42
2023-01-11T18:01:51.714Z,26.15
2023-01-11T18:04:21.727Z,26.88
2023-01-11T18:06:52.184Z,24.45
2023-01-11T18:09:26.488Z,26.25
2023-01-11T18:11:55.537Z,25.48
2023-01-11T18:14:29.412Z,25.23
2023-01-11T18:17:03.012Z,24.42
2023-01-11T18:19:39.443Z,24.63
2023-01-11T18:22:33.346Z,24.90
2023-01-11T18:25:17.955Z,24.38
2023-01-11T18:27:47.077Z,23.50
2023-01-11T18:30:38.559Z,25.10
2023-01-11T18:33:15.911Z,22.70
2023-01-11T18:35:46.220Z,23.08
2023-01-11T18:38:17.372Z,22.60
2023-01-11T18:40:50.945Z,26.77
2023-01-11T18:43:24.582Z,25.42
2023-01-11T18:45:57.108Z,24.65
2023-01-11T18:48:28.515Z,26.90
2023-01-11T18:50:56.966Z,26.33
2023-01-11T18:53:30.309Z,23.88
2023-01-11T18:56:02.765Z,23.67
2023-01-11T18:58:31.434Z,23.45
2023-01-11T19:01:00.816Z,26.10
2023-01-11T19:03:29.657Z,22.60
2023-01-11T19:05:58.160Z,24.20
2023-01-11T19:08:26.707Z,22.83
2023-01-11T19:10:55.270Z,24.48
2023-01-11T19:13:25.156Z,26.60
2023-01-11T19:15:53.729Z,24.70
2023-01-11T19:18:25.207Z,24.38
2023-01-11T19:21:20.052Z,25.50
2023-01-11T19:23:49.974Z,24.77
2023-01-11T19:26:18.718Z,25.60
2023-01-11T19:28:48.608Z,24.83
2023-01-11T19:31:17.872Z,25.95
2023-01-11T19:33:46.816Z,24.08
2023-01-11T19:36:33.531Z,25.63
2023-01-11T19:39:13.645Z,24.95
2023-01-11T19:42:01.528Z,23.38
2023-01-11T19:44:38.945Z,26.15
2023-01-11T19:47:12.973Z,21.95
2023-01-11T19:49:42.132Z,23.25
2023-01-11T19:52:14.063Z,22.77
2023-01-11T19:54:47.516Z,23.75
2023-01-11T19:57:18.060Z,23.77
2023-01-11T19:59:52.288Z,22.08
2023-01-11T20:02:22.342Z,23.08
2023-01-11T20:05:10.342Z,21.92
2023-01-11T20:07:38.919Z,23.58
2023-01-11T20:10:08.070Z,22.45
2023-01-11T20:12:36.490Z,21.15
2023-01-11T20:15:07.790Z,21.42
2023-01-11T20:17:39.031Z,22.00
2023-01-11T20:20:15.122Z,22.35
2023-01-11T20:22:45.753Z,21.20
2023-01-11T20:25:14.777Z,21.33
2023-01-11T20:27:43.485Z,21.00
2023-01-11T20:30:14.197Z,21.90
2023-01-11T20:32:49.006Z,23.17
2023-01-11T20:35:17.503Z,24.25
2023-01-11T20:37:45.853Z,23.42
2023-01-11T20:40:15.386Z,24.88
2023-01-11T20:42:44.033Z,23.15
2023-01-11T20:45:14.097Z,26.67
2023-01-11T20:47:42.562Z,24.23
2023-01-11T20:50:11.650Z,24.27
2023-01-11T20:52:41.781Z,26.00
2023-01-11T20:55:11.143Z,26.25
2023-01-11T20:57:39.635Z,26.80
2023-01-11T21:02:49.571Z,28.52
2023-01-11T21:05:18.812Z,28.17
2023-01-11T21:07:48.071Z,27.63
2023-01-11T21:10:16.646Z,28.67
2023-01-11T21:12:45.034Z,28.15
2023-01-11T21:15:21.101Z,27.40
2023-01-11T21:17:58.904Z,27.02
2023-01-11T21:20:27.498Z,27.75
2023-01-11T21:22:56.906Z,30.45
2023-01-11T21:25:28.439Z,26.98
2023-01-11T21:28:04.083Z,29.38
2023-01-11T21:30:34.670Z,27.83
2023-01-11T21:33:04.560Z,28.83
2023-01-11T21:35:35.389Z,30.23
2023-01-11T21:38:06.825Z,27.95
2023-01-11T21:40:35.267Z,27.52
2023-01-11T21:43:09.212Z,27.75
2023-01-11T21:45:37.626Z,28.98
2023-01-11T21:48:45.408Z,27.73
2023-01-11T21:51:16.284Z,29.10
2023-01-11T21:53:48.356Z,31.35
2023-01-11T21:56:20.814Z,30.08
2023-01-11T21:58:58.821Z,28.15
2023-01-11T22:01:52.341Z,27.92
2023-01-11T22:04:43.496Z,28.25
2023-01-11T22:07:22.190Z,29.63
2023-01-11T22:10:18.993Z,28.23
2023-01-11T22:13:06.922Z,28.58
2023-01-11T22:15:52.869Z,26.48
2023-01-11T22:18:24.144Z,30.27
2023-01-11T22:21:45.477Z,28.77
2023-01-11T22:24:13.896Z,28.77
2023-01-11T22:26:44.702Z,28.98
2023-01-11T22:29:15.308Z,29.88
2023-01-11T22:32:17.138Z,30.33
2023-01-11T22:34:45.688Z,29.38
2023-01-11T22:37:15.386Z,29.77
2023-01-11T22:39:43.812Z,31.38
2023-01-11T22:42:18.570Z,29.77
2023-01-11T22:44:47.106Z,28.17
2023-01-11T22:47:15.422Z,28.13
2023-01-11T22:49:43.719Z,29.75
2023-01-11T22:52:12.035Z,28.58
2023-01-11T22:54:42.738Z,28.80
2023-01-11T22:57:17.140Z,30.27
2023-01-11T22:59:45.655Z,28.73
2023-01-11T23:02:16.380Z,28.80
2023-01-11T23:04:44.988Z,31.80
2023-01-11T23:07:13.333Z,29.48
2023-01-11T23:09:43.343Z,30.73
2023-01-11T23:12:28.890Z,28.85
2023-01-11T23:14:57.317Z,26.85
2023-01-11T23:17:25.625Z,30.27
2023-01-11T23:19:54.096Z,30.42
2023-01-11T23:22:23.506Z,28.70
2023-01-11T23:24:53.293Z,28.48
2023-01-11T23:27:21.971Z,27.38
2023-01-11T23:29:50.418Z,30.20
2023-01-11T23:32:18.962Z,30.42
2023-01-11T23:34:48.540Z,28.58
2023-01-11T23:37:17.409Z,29.25
2023-01-11T23:39:45.685Z,28.83
2023-01-11T23:42:26.567Z,26.52
2023-01-11T23:44:54.955Z,28.23
2023-01-11T23:47:24.805Z,28.73
2023-01-11T23:49:54.409Z,27.00
2023-01-11T23:52:24.761Z,27.55
2023-01-11T23:54:53.483Z,25.92
2023-01-11T23:57:24.722Z,26.35
2023-01-11T23:59:53.122Z,27.85
